Alden, KS

3:38 AM CDT on August 02, 2014 (GMT -0500)
KKSLYONS2 Elev 1729 ft | 38.35 °N, 98.20 °W | Change Station

Current weather conditions updated 14 seconds ago

Clear
Clear
67.5 °F
Feels Like 67.5 °F
N
-
Wind Variable Wind from North

Today is forecast to be Much Cooler than yesterday.

Today
High -- | Low -- °F
--% Chance of Precip.
Yesterday
High -- | Low -- °F
Precip. -- in
6:36 AM 8:41 PM
Waxing Crescent, 33% visible
Pressure 30.02 in
Visibility 10.0 miles
Clouds Clear
Dew Point 52 °F
Humidity 58%
Rainfall -999.00 in
Snow Depth Not available.
UV 0 out of 12
Pollen 7.00 out of 12
Air Quality Not available.
Flu Activity Not available.
METAR KHUT 020652Z AUTO 00000KT 10SM CLR 17/12 A3008 RMK AO2 SLP165 T01670117

More Conditions Fewer Conditions

Pressure 30.02 in
Visibility 10.0 miles
Clouds Clear
Dew Point 52 °F
Humidity 58%
Rainfall -999.00 in
Snow Depth Not available.
UV 0 out of 12
Pollen 7.00 out of 12
Air Quality Not available.
Flu Activity Not available.
METAR KHUT 020652Z AUTO 00000KT 10SM CLR 17/12 A3008 RMK AO2 SLP165 T01670117

More Conditions Fewer Conditions

10-Day Weather Forecast

Almanac

Astronomy

Aug. 02, 2014 Rise Set
Actual Time 6:36 AM CDT 8:41 PM CDT
Civil Twilight 6:07 AM CDT 9:11 PM CDT
Nautical Twilight 5:31 AM CDT 9:46 PM CDT
Astronomical Twilight 4:52 AM CDT 10:25 PM CDT
Moon 12:53 PM CDT No Moon Set
Length of Visible Light 15h 03m
Length of Day
14h 05m
Tomorrow will be 1m 53s shorter.
Waxing Crescent, 33% of the Moon is Illuminated
Today
Waxing Crescent
Aug 3
First Quarter
Aug 10
Full
Aug 17
Last Quarter
Aug 25
New

Today's Extremes

State Highs State Lows

Community

WunderPhotos

Upload Photos

1,739,844 photos uploaded!

Nearby

Snow Depth

Station Depth Elevation
No new snow has been reported.

Earthquake Activity

City Distance Mag. Time & Date
Medford, Oklahoma 105 miles 2.7 2:39 AM CDT
2014-07-29
Medford, Oklahoma 105 miles 4.3 9:46 PM CDT
2014-07-28
Cherokee, Oklahoma 104 miles 3.0 5:26 PM CDT
2014-07-28
Medford, Oklahoma 102 miles 2.9 3:39 PM CDT
2014-07-27
Minimum magnitude displayed is 2.5.

Coastal Water Temperatures

Place Temperature
No Stations Reporting

Nearby Weather Stations

Station Location Temp. Dew Point Humidity Wind Precip. Elev Updated Type
Lyons, KS 67.5 °F 52 °F 58% North  at  - - / hr 1729 ft 3:38 AM CDT Rapid Fire
RAWS STAFFORD KS, Hudson, KS 61 °F 58 °F 89% NW  at  1 mph 0.00 in / hr 1768 ft 2:59 AM CDT MADIS
Ellinwood High School, Ellinwood, KS 65.8 °F 59 °F 79% NNW  at  0.9 mph 0.00 in / hr 1811 ft 3:38 AM CDT Rapid Fire
MesoWest PRTRGE , Partridge, KS 67 °F - - North  at  - 0.00 in / hr 1623 ft 1:35 AM CDT MADIS
Hutchinson, KS 63.3 °F 56 °F 76% East  at  0.0 mph 0.00 in / hr 1549 ft 3:38 AM CDT Rapid Fire

Show More Stations Show Fewer Stations